Aviation Digital Data Service (ADDS)

Output produced by TAFs form (0156 UTC 18 October 2017)
found at http://aviationweather.gov/adds/tafs/
 
METAR text: KFLO 180153Z AUTO 04005KT 10SM CLR 12/06 A3031 RMK AO2 SLP263 T01170056
Conditions at: KFLO (FLORENCE , SC, US) observed 0153 UTC 18 October 2017
Temperature: 11.7°C (53°F)
Dewpoint: 5.6°C (42°F) [RH = 66%]
Pressure (altimeter): 30.31 inches Hg (1026.5 mb)
[Sea-level pressure: 1026.3 mb]
Winds: from the NE (40 degrees) at 6 MPH (5 knots; 2.6 m/s)
Visibility: 10 or more miles (16+ km)
Ceiling: at least 12,000 feet AGL
Clouds: sky clear below 12,000 feet AGL
Weather: automated observation with no human augmentation;
there may or may not be significant weather present at this time

Forecast for: KFLO (FLORENCE , SC, US)
Text: KFLO 172320Z 1800/1824 04004KT P6SM SKC
Forecast period: 0000 to 1500 UTC 18 October 2017
Forecast type: FROM: standard forecast or significant change
Winds: from the NE (40 degrees) at 5 MPH (4 knots; 2.1 m/s)
Visibility: 6 or more miles (10+ km)
Clouds: clear skies
Weather: no significant weather forecast for this period
Text: FM181500 05008KT P6SM SKC
Forecast period: 1500 UTC 18 October 2017 to 0000 UTC 19 October 2017
Forecast type: FROM: standard forecast or significant change
Winds: from the NE (50 degrees) at 9 MPH (8 knots; 4.2 m/s)
Visibility: 6 or more miles (10+ km)
Clouds: clear skies
Weather: no significant weather forecast for this period